createdAt,value
2022-07-30T00:01:19.411Z,4.40
2022-07-30T00:04:13.213Z,3.83
2022-07-30T00:07:01.337Z,4.50
2022-07-30T00:09:55.232Z,4.03
2022-07-30T00:12:42.364Z,4.88
2022-07-30T00:15:36.222Z,4.15
2022-07-30T00:18:30.228Z,6.18
2022-07-30T00:21:34.577Z,5.13
2022-07-30T00:24:30.259Z,3.60
2022-07-30T00:27:24.255Z,4.00
2022-07-30T00:30:19.244Z,4.70
2022-07-30T00:33:08.193Z,5.05
2022-07-30T00:36:02.259Z,4.82
2022-07-30T00:38:56.330Z,4.75
2022-07-30T00:42:05.299Z,6.00
2022-07-30T00:44:53.270Z,5.80
2022-07-30T00:47:47.278Z,5.75
2022-07-30T00:50:34.417Z,6.20
2022-07-30T00:53:28.322Z,7.20
2022-07-30T00:56:15.456Z,7.28
2022-07-30T00:59:09.528Z,6.50
2022-07-30T01:01:56.688Z,6.65
2022-07-30T01:04:51.315Z,6.50
2022-07-30T01:07:39.924Z,5.78
2022-07-30T01:10:33.316Z,6.60
2022-07-30T01:13:20.468Z,5.43
2022-07-30T01:16:21.382Z,7.80
2022-07-30T01:19:39.655Z,7.40
2022-07-30T01:22:33.330Z,6.57
2022-07-30T01:25:32.350Z,7.45
2022-07-30T01:28:39.327Z,5.97
2022-07-30T01:31:28.542Z,7.00
2022-07-30T01:34:24.374Z,6.80
2022-07-30T01:37:12.155Z,5.53
2022-07-30T01:40:06.346Z,5.53
2022-07-30T01:42:55.329Z,5.78
2022-07-30T01:45:50.532Z,7.97
2022-07-30T01:48:41.068Z,6.60
2022-07-30T01:51:37.719Z,6.85
2022-07-30T01:54:26.705Z,8.45
2022-07-30T01:57:21.412Z,7.50
2022-07-30T02:00:16.422Z,6.38
2022-07-30T02:03:12.492Z,5.63
2022-07-30T02:06:28.443Z,4.85
2022-07-30T02:09:26.401Z,6.20
2022-07-30T02:12:30.290Z,6.25
2022-07-30T02:15:43.427Z,4.90
2022-07-30T02:18:43.838Z,5.00
2022-07-30T02:21:49.637Z,5.47
2022-07-30T02:24:41.578Z,5.53
2022-07-30T02:27:38.503Z,6.20
2022-07-30T02:30:36.522Z,5.85
2022-07-30T02:33:29.107Z,8.30
2022-07-30T02:36:25.457Z,6.90
2022-07-30T02:39:15.015Z,5.80
2022-07-30T02:42:11.449Z,6.53
2022-07-30T02:45:00.144Z,6.15
2022-07-30T02:48:02.472Z,6.18
2022-07-30T02:50:53.260Z,6.63
2022-07-30T02:53:51.796Z,5.55
2022-07-30T02:56:40.634Z,6.43
2022-07-30T02:59:37.532Z,5.05
2022-07-30T03:02:29.293Z,6.55
2022-07-30T03:05:23.536Z,5.97
2022-07-30T03:08:11.274Z,6.55
2022-07-30T03:11:06.503Z,6.10
2022-07-30T03:13:53.735Z,6.60
2022-07-30T03:16:53.522Z,7.18
2022-07-30T03:19:41.506Z,5.53
2022-07-30T03:22:36.556Z,5.35
2022-07-30T03:25:26.569Z,5.72
2022-07-30T03:28:21.566Z,5.50
2022-07-30T03:31:10.597Z,5.55
2022-07-30T03:34:06.549Z,6.47
2022-07-30T03:36:55.575Z,4.95
2022-07-30T03:39:49.526Z,6.63
2022-07-30T03:42:37.823Z,7.53
2022-07-30T03:45:31.547Z,6.20
2022-07-30T03:48:18.902Z,6.90
2022-07-30T03:51:16.576Z,6.40
2022-07-30T03:54:13.810Z,7.50
2022-07-30T03:57:03.468Z,7.60
2022-07-30T03:59:58.608Z,8.50
2022-07-30T04:02:47.149Z,7.90
2022-07-30T04:05:41.739Z,7.63
2022-07-30T04:08:29.206Z,7.80
2022-07-30T04:11:40.592Z,7.25
2022-07-30T04:14:43.094Z,7.70
2022-07-30T04:17:42.631Z,10.73
2022-07-30T04:20:36.793Z,7.88
2022-07-30T04:23:30.616Z,7.72
2022-07-30T04:26:26.597Z,7.65
2022-07-30T04:29:18.130Z,6.18
2022-07-30T04:35:04.106Z,6.20
2022-07-30T04:37:57.633Z,6.75
2022-07-30T04:40:44.789Z,6.70
2022-07-30T04:43:40.074Z,6.75
2022-07-30T04:46:27.345Z,6.13
2022-07-30T04:49:23.786Z,5.65
2022-07-30T04:52:12.423Z,7.80
2022-07-30T04:55:10.653Z,6.72
2022-07-30T04:57:59.540Z,5.68
2022-07-30T05:00:58.652Z,5.53
2022-07-30T05:03:53.697Z,4.65
2022-07-30T05:06:48.674Z,4.65
2022-07-30T05:09:36.552Z,4.85
2022-07-30T05:12:39.733Z,5.35
2022-07-30T05:15:35.973Z,6.25
2022-07-30T05:18:24.459Z,6.00
2022-07-30T05:21:17.697Z,5.68
2022-07-30T05:24:05.340Z,4.97
2022-07-30T05:26:59.061Z,4.30
2022-07-30T05:29:46.978Z,5.30
2022-07-30T05:32:41.753Z,5.55
2022-07-30T05:35:28.845Z,4.22
2022-07-30T05:38:24.721Z,4.30
2022-07-30T05:41:32.759Z,4.75
2022-07-30T05:44:26.730Z,4.03
2022-07-30T05:47:13.831Z,4.10
2022-07-30T05:50:07.738Z,3.85
2022-07-30T05:52:56.065Z,4.72
2022-07-30T05:55:49.781Z,3.80
2022-07-30T05:58:36.998Z,3.88
2022-07-30T06:01:30.814Z,3.17
2022-07-30T06:04:17.927Z,3.72
2022-07-30T06:07:11.769Z,3.72
2022-07-30T06:10:06.894Z,3.85
2022-07-30T06:12:53.956Z,4.00
2022-07-30T06:15:47.813Z,4.00
2022-07-30T06:18:34.909Z,3.28
2022-07-30T06:21:28.791Z,3.88
2022-07-30T06:24:35.909Z,4.10
2022-07-30T06:27:31.969Z,3.53
2022-07-30T06:30:20.183Z,3.78
2022-07-30T06:33:24.822Z,3.75
2022-07-30T06:36:14.207Z,3.75
2022-07-30T06:39:07.853Z,3.10
2022-07-30T06:42:01.797Z,3.03
2022-07-30T06:44:48.880Z,3.10
2022-07-30T06:47:42.819Z,2.80
2022-07-30T06:50:29.980Z,3.22
2022-07-30T06:53:23.821Z,3.30
2022-07-30T06:56:17.829Z,2.70
2022-07-30T06:59:04.913Z,3.17
2022-07-30T07:02:00.945Z,3.10
2022-07-30T07:04:48.094Z,3.20
2022-07-30T07:07:46.470Z,3.10
2022-07-30T07:10:49.878Z,3.22
2022-07-30T07:13:43.857Z,3.03
2022-07-30T07:16:37.941Z,1.98
2022-07-30T07:19:59.511Z,2.25
2022-07-30T07:22:38.867Z,2.22
2022-07-30T07:25:32.939Z,1.77
2022-07-30T07:28:20.102Z,2.30
2022-07-30T07:32:05.758Z,2.40
2022-07-30T07:34:24.074Z,2.50
2022-07-30T07:37:17.926Z,2.38
2022-07-30T07:40:05.845Z,1.80
2022-07-30T07:42:59.936Z,2.38
2022-07-30T07:45:53.975Z,2.40
2022-07-30T07:48:41.086Z,2.63
2022-07-30T07:51:48.197Z,2.78
2022-07-30T07:54:35.805Z,3.10
2022-07-30T07:57:28.966Z,2.67
2022-07-30T08:00:17.791Z,2.88
2022-07-30T08:03:10.940Z,1.95
2022-07-30T08:06:06.342Z,2.28
2022-07-30T08:09:00.985Z,2.42
2022-07-30T08:11:54.551Z,2.30
2022-07-30T08:14:48.060Z,2.10
2022-07-30T08:17:43.602Z,2.00
2022-07-30T08:20:37.040Z,2.05
2022-07-30T08:23:30.975Z,1.70
2022-07-30T08:26:25.001Z,1.52
2022-07-30T08:29:17.024Z,1.90
2022-07-30T08:32:12.026Z,1.85
2022-07-30T08:34:59.114Z,1.48
2022-07-30T08:37:54.001Z,1.90
2022-07-30T08:40:41.232Z,1.60
2022-07-30T08:43:42.016Z,1.42
2022-07-30T08:46:47.430Z,1.60
2022-07-30T08:49:36.181Z,1.60
2022-07-30T08:52:30.021Z,1.50
2022-07-30T08:55:18.083Z,1.50
2022-07-30T08:58:21.014Z,1.33
2022-07-30T09:01:08.352Z,1.80
2022-07-30T09:04:02.151Z,1.70
2022-07-30T09:06:56.046Z,2.03
2022-07-30T09:09:43.494Z,1.30
2022-07-30T09:12:46.046Z,1.20
2022-07-30T09:15:38.628Z,1.60
2022-07-30T09:18:36.050Z,1.25
2022-07-30T09:21:29.324Z,1.38
2022-07-30T09:24:23.072Z,1.40
2022-07-30T09:27:10.172Z,1.20
2022-07-30T09:30:06.102Z,1.50
2022-07-30T09:32:56.643Z,1.60
2022-07-30T09:35:50.102Z,1.20
2022-07-30T09:38:54.264Z,1.55
2022-07-30T09:41:48.241Z,1.45
2022-07-30T09:44:42.094Z,1.10
2022-07-30T09:47:47.170Z,1.20
2022-07-30T09:50:34.333Z,1.40
2022-07-30T09:53:31.166Z,1.20
2022-07-30T09:56:26.852Z,1.10
2022-07-30T09:59:38.193Z,1.33
2022-07-30T10:02:33.703Z,1.45
2022-07-30T10:05:28.186Z,1.10
2022-07-30T10:08:16.583Z,1.00
2022-07-30T10:11:11.138Z,1.20
2022-07-30T10:14:06.194Z,1.10
2022-07-30T10:16:53.885Z,1.83
2022-07-30T10:19:47.286Z,1.60
2022-07-30T10:22:36.723Z,1.35
2022-07-30T10:25:33.179Z,2.25
2022-07-30T10:28:24.410Z,2.00
2022-07-30T10:31:48.171Z,1.38
2022-07-30T10:34:34.554Z,1.38
2022-07-30T10:37:25.859Z,1.20
2022-07-30T10:40:39.554Z,1.50
2022-07-30T10:43:50.994Z,1.30
2022-07-30T10:50:14.388Z,1.15
2022-07-30T10:53:09.217Z,1.10
2022-07-30T10:56:26.221Z,1.20
2022-07-30T10:59:15.037Z,1.10
2022-07-30T11:02:15.266Z,1.17
2022-07-30T11:05:43.878Z,1.30
2022-07-30T11:08:42.767Z,1.25
2022-07-30T11:12:01.432Z,1.48
2022-07-30T11:14:57.198Z,1.40
2022-07-30T11:18:12.351Z,1.33
2022-07-30T11:21:22.650Z,1.20
2022-07-30T11:24:45.410Z,1.10
2022-07-30T11:30:34.965Z,1.10
2022-07-30T11:33:32.101Z,1.17
2022-07-30T11:36:20.471Z,1.17
2022-07-30T11:39:18.294Z,1.13
2022-07-30T11:42:33.277Z,1.70
2022-07-30T11:45:23.350Z,1.50
2022-07-30T11:48:19.288Z,1.77
2022-07-30T11:51:06.748Z,1.20
2022-07-30T11:54:14.314Z,1.35
2022-07-30T11:57:04.558Z,1.42
2022-07-30T12:00:02.338Z,1.23
2022-07-30T12:05:52.550Z,0.90
2022-07-30T12:08:49.393Z,1.40
2022-07-30T12:11:37.479Z,1.17
2022-07-30T12:14:31.331Z,1.10
2022-07-30T12:17:25.401Z,1.17
2022-07-30T12:20:24.455Z,1.77
2022-07-30T12:23:15.425Z,1.15
2022-07-30T12:26:26.778Z,1.55
2022-07-30T12:29:14.370Z,1.20
2022-07-30T12:32:08.379Z,1.23
2022-07-30T12:35:02.377Z,1.25
2022-07-30T12:38:11.387Z,1.50
2022-07-30T12:41:07.427Z,1.60
2022-07-30T12:44:02.433Z,1.52
2022-07-30T12:46:49.539Z,1.70
2022-07-30T12:49:48.759Z,1.85
2022-07-30T12:52:44.403Z,1.40
2022-07-30T12:55:40.423Z,1.40
2022-07-30T12:58:36.610Z,1.20
2022-07-30T13:01:49.474Z,1.15
2022-07-30T13:05:10.414Z,2.40
2022-07-30T13:08:00.447Z,2.50
2022-07-30T13:11:20.605Z,1.60
2022-07-30T13:14:08.993Z,1.42
2022-07-30T13:17:05.105Z,1.45
2022-07-30T13:19:59.425Z,5.65
2022-07-30T13:22:53.511Z,2.83
2022-07-30T13:25:40.651Z,1.70
2022-07-30T13:28:48.469Z,2.58
2022-07-30T13:31:43.567Z,1.60
2022-07-30T13:34:37.476Z,1.30
2022-07-30T13:37:38.052Z,1.10
2022-07-30T13:40:32.477Z,1.42
2022-07-30T13:43:19.905Z,1.20
2022-07-30T13:46:13.538Z,1.50
2022-07-30T13:49:00.745Z,1.10
2022-07-30T13:51:54.486Z,1.10
2022-07-30T13:54:48.508Z,1.08
2022-07-30T13:57:45.061Z,1.60
2022-07-30T14:00:40.796Z,1.70
2022-07-30T14:03:27.922Z,1.40
2022-07-30T14:06:22.529Z,1.50
2022-07-30T14:09:09.712Z,1.17
2022-07-30T14:12:03.525Z,1.40
2022-07-30T14:14:50.716Z,1.50
2022-07-30T14:17:44.545Z,1.15
2022-07-30T14:20:48.275Z,2.20
2022-07-30T14:23:42.555Z,1.40
2022-07-30T14:26:36.767Z,1.27
2022-07-30T14:29:24.137Z,2.13
2022-07-30T14:32:17.569Z,1.30
2022-07-30T14:35:13.607Z,2.42
2022-07-30T14:38:07.554Z,1.80
2022-07-30T14:41:01.596Z,1.63
2022-07-30T14:43:48.728Z,1.40
2022-07-30T14:46:52.335Z,1.30
2022-07-30T14:49:40.047Z,1.38
2022-07-30T14:52:33.622Z,1.00
2022-07-30T14:55:20.824Z,1.08
2022-07-30T14:58:14.658Z,1.25
2022-07-30T15:01:16.019Z,1.10
2022-07-30T15:04:04.481Z,1.30
2022-07-30T15:06:58.672Z,1.70
2022-07-30T15:09:46.154Z,1.50
2022-07-30T15:12:39.678Z,1.80
2022-07-30T15:15:32.159Z,1.40
2022-07-30T15:18:29.639Z,1.50
2022-07-30T15:21:23.635Z,1.02
2022-07-30T15:24:11.326Z,1.10
2022-07-30T15:27:05.641Z,1.30
2022-07-30T15:29:52.890Z,1.38
2022-07-30T15:32:46.652Z,1.02
2022-07-30T15:35:33.980Z,1.80
2022-07-30T15:38:27.665Z,1.40
2022-07-30T15:41:21.662Z,1.45
2022-07-30T15:44:09.020Z,2.00
2022-07-30T15:47:02.689Z,1.40
2022-07-30T15:49:50.131Z,1.70
2022-07-30T15:52:43.756Z,1.75
2022-07-30T15:55:31.023Z,1.60
2022-07-30T15:58:43.512Z,1.23
2022-07-30T16:01:31.078Z,1.30
2022-07-30T16:04:31.234Z,1.70
2022-07-30T16:07:19.237Z,1.38
2022-07-30T16:10:13.722Z,1.83
2022-07-30T16:13:07.721Z,1.33
2022-07-30T16:15:54.776Z,1.10
2022-07-30T16:18:48.779Z,1.70
2022-07-30T16:21:35.988Z,1.63
2022-07-30T16:24:29.792Z,1.67
2022-07-30T16:27:23.851Z,1.58
2022-07-30T16:30:18.731Z,1.30
2022-07-30T16:33:12.752Z,1.20
2022-07-30T16:35:59.937Z,1.10
2022-07-30T16:38:53.780Z,1.13
2022-07-30T16:41:47.744Z,1.52
2022-07-30T16:44:41.776Z,1.30
2022-07-30T16:47:35.770Z,1.83
2022-07-30T16:50:22.958Z,1.65
2022-07-30T16:53:17.772Z,1.50
2022-07-30T16:56:05.187Z,1.30
2022-07-30T16:58:58.834Z,1.50
2022-07-30T17:01:47.364Z,2.83
2022-07-30T17:04:41.847Z,4.13
2022-07-30T17:07:35.805Z,2.70
2022-07-30T17:10:25.660Z,2.60
2022-07-30T17:13:19.845Z,1.75
2022-07-30T17:16:07.691Z,2.28
2022-07-30T17:19:08.165Z,1.92
2022-07-30T17:21:56.640Z,1.77
2022-07-30T17:24:50.828Z,1.30
2022-07-30T17:27:44.821Z,1.23
2022-07-30T17:30:31.980Z,1.38
2022-07-30T17:33:25.843Z,1.40
2022-07-30T17:36:13.446Z,1.00
2022-07-30T17:39:06.835Z,1.00
2022-07-30T17:41:59.001Z,1.20
2022-07-30T17:44:56.845Z,1.15
2022-07-30T17:47:50.857Z,1.45
2022-07-30T17:50:44.890Z,1.17
2022-07-30T17:53:39.840Z,1.30
2022-07-30T17:56:27.485Z,1.10
2022-07-30T17:59:20.894Z,1.20
2022-07-30T18:02:08.523Z,1.10
2022-07-30T18:05:01.927Z,1.00
2022-07-30T18:07:55.976Z,1.25
2022-07-30T18:10:43.139Z,0.93
2022-07-30T18:13:36.897Z,1.20
2022-07-30T18:16:31.905Z,1.05
2022-07-30T18:19:27.415Z,1.00
2022-07-30T18:22:15.103Z,1.10
2022-07-30T18:25:18.068Z,1.50
2022-07-30T18:28:12.938Z,1.13
2022-07-30T18:31:00.179Z,1.00
2022-07-30T18:33:55.955Z,1.10
2022-07-30T18:36:43.173Z,0.90
2022-07-30T18:39:36.923Z,0.80
2022-07-30T18:42:24.028Z,1.00
2022-07-30T18:45:22.013Z,0.98
2022-07-30T18:48:09.266Z,0.98
2022-07-30T18:51:13.915Z,1.10
2022-07-30T18:54:08.277Z,1.10
2022-07-30T18:57:01.985Z,0.90
2022-07-30T18:59:56.008Z,0.90
2022-07-30T19:02:49.959Z,1.10
2022-07-30T19:05:44.084Z,0.93
2022-07-30T19:08:37.986Z,0.80
2022-07-30T19:11:25.102Z,1.10
2022-07-30T19:14:19.987Z,1.20
2022-07-30T19:17:13.640Z,0.80
2022-07-30T19:20:08.027Z,1.30
2022-07-30T19:23:06.034Z,0.93
2022-07-30T19:26:00.116Z,0.80
2022-07-30T19:28:54.007Z,1.10
2022-07-30T19:31:51.054Z,0.90
2022-07-30T19:34:46.013Z,0.85
2022-07-30T19:37:33.132Z,0.88
2022-07-30T19:40:27.078Z,1.00
2022-07-30T19:43:14.271Z,0.90
2022-07-30T19:46:08.032Z,0.80
2022-07-30T19:49:02.153Z,0.95
2022-07-30T19:52:09.899Z,1.00
2022-07-30T19:55:17.039Z,1.17
2022-07-30T20:01:40.562Z,0.90
2022-07-30T20:04:35.087Z,1.10
2022-07-30T20:07:29.078Z,0.90
2022-07-30T20:10:20.051Z,0.95
2022-07-30T20:13:15.160Z,1.10
2022-07-30T20:16:03.178Z,1.20
2022-07-30T20:18:57.157Z,1.10
2022-07-30T20:21:57.007Z,1.10
2022-07-30T20:24:54.119Z,1.02
2022-07-30T20:27:41.772Z,0.90
2022-07-30T20:30:36.109Z,1.25
2022-07-30T20:33:35.797Z,1.10
2022-07-30T20:36:31.132Z,1.23
2022-07-30T20:39:19.942Z,1.00
2022-07-30T20:42:18.622Z,1.20
2022-07-30T20:45:16.153Z,1.10
2022-07-30T20:48:03.409Z,0.90
2022-07-30T20:50:58.213Z,1.23
2022-07-30T20:53:45.791Z,1.02
2022-07-30T20:56:40.305Z,1.10
2022-07-30T20:59:35.186Z,1.10
2022-07-30T21:02:29.289Z,1.15
2022-07-30T21:05:19.843Z,1.10
2022-07-30T21:08:14.162Z,1.20
2022-07-30T21:11:03.156Z,1.00
2022-07-30T21:13:57.157Z,1.20
2022-07-30T21:16:44.482Z,1.30
2022-07-30T21:19:38.168Z,1.30
2022-07-30T21:22:25.323Z,1.20
2022-07-30T21:25:19.226Z,1.38
2022-07-30T21:28:06.453Z,1.33
2022-07-30T21:31:00.206Z,1.33
2022-07-30T21:33:49.318Z,1.17
2022-07-30T21:36:44.195Z,1.40
2022-07-30T21:39:39.988Z,1.40
2022-07-30T21:42:30.440Z,1.23
2022-07-30T21:45:28.362Z,1.52
2022-07-30T21:48:33.247Z,1.20
2022-07-30T21:51:27.294Z,1.40
2022-07-30T21:54:17.092Z,1.10
2022-07-30T21:57:26.422Z,1.20
2022-07-30T22:00:22.319Z,1.20
2022-07-30T22:06:24.318Z,1.80
2022-07-30T22:09:33.327Z,1.73
2022-07-30T22:12:21.646Z,2.70
2022-07-30T22:15:19.268Z,2.97
2022-07-30T22:18:06.874Z,2.90
2022-07-30T22:21:01.250Z,2.45
2022-07-30T22:23:54.966Z,2.38
2022-07-30T22:26:52.316Z,2.60
2022-07-30T22:29:42.626Z,2.40
2022-07-30T22:32:36.318Z,2.10
2022-07-30T22:35:33.356Z,2.05
2022-07-30T22:38:28.306Z,1.70
2022-07-30T22:41:15.619Z,1.80
2022-07-30T22:44:12.840Z,2.10
2022-07-30T22:47:00.138Z,1.92
2022-07-30T22:49:56.048Z,2.33
2022-07-30T22:52:53.518Z,1.75
2022-07-30T22:56:00.357Z,2.50
2022-07-30T22:58:48.700Z,3.35
2022-07-30T23:01:43.607Z,3.42
2022-07-30T23:04:30.879Z,2.70
2022-07-30T23:07:35.931Z,3.00
2022-07-30T23:10:28.232Z,3.17
2022-07-30T23:12:16.424Z,1.20
2022-07-30T23:13:21.375Z,3.50
2022-07-30T23:16:15.364Z,3.38
2022-07-30T23:19:03.394Z,3.67
2022-07-30T23:21:57.416Z,3.03
2022-07-30T23:24:44.588Z,2.45
2022-07-30T23:27:38.373Z,2.38
2022-07-30T23:30:34.015Z,2.60
2022-07-30T23:33:21.504Z,2.58
2022-07-30T23:36:16.469Z,2.08
2022-07-30T23:39:03.931Z,1.90
2022-07-30T23:41:57.466Z,1.92
2022-07-30T23:44:44.623Z,2.08
2022-07-30T23:48:01.263Z,1.88
2022-07-30T23:50:52.399Z,2.08
2022-07-30T23:53:39.585Z,1.63
2022-07-30T23:56:33.430Z,1.85
2022-07-30T23:59:20.767Z,1.58
